createdAt,value
2023-03-15T00:02:12.970Z,99662.69
2023-03-15T00:07:17.156Z,99676.09
2023-03-15T00:12:19.950Z,99684.28
2023-03-15T00:17:23.373Z,99677.75
2023-03-15T00:22:27.603Z,99691.72
2023-03-15T00:27:30.393Z,99693.00
2023-03-15T00:32:33.201Z,99698.88
2023-03-15T00:37:38.083Z,99707.06
2023-03-15T00:42:41.267Z,99708.06
2023-03-15T00:47:44.003Z,99714.22
2023-03-15T00:52:48.107Z,99713.75
2023-03-15T00:57:50.864Z,99710.13
2023-03-15T01:02:54.084Z,99733.19
2023-03-15T01:07:58.323Z,99731.59
2023-03-15T01:13:01.366Z,99733.84
2023-03-15T01:18:04.543Z,99740.81
2023-03-15T01:23:08.847Z,99744.75
2023-03-15T01:28:11.613Z,99739.91
2023-03-15T01:33:14.446Z,99736.88
2023-03-15T01:38:23.656Z,99738.13
2023-03-15T01:43:27.384Z,99743.13
2023-03-15T01:48:35.407Z,99747.91
2023-03-15T01:53:39.949Z,99758.41
2023-03-15T01:58:42.772Z,99752.13
2023-03-15T02:03:46.840Z,99761.38
2023-03-15T02:08:54.469Z,99766.84
2023-03-15T02:13:57.940Z,99763.72
2023-03-15T02:19:01.726Z,99766.75
2023-03-15T02:24:16.476Z,99769.66
2023-03-15T02:29:21.171Z,99778.81
2023-03-15T02:34:25.420Z,99783.41
2023-03-15T02:39:28.356Z,99788.19
2023-03-15T02:44:33.509Z,99796.34
2023-03-15T02:49:38.703Z,99802.06
2023-03-15T02:54:43.682Z,99811.06
2023-03-15T02:59:50.674Z,99815.81
2023-03-15T03:04:53.871Z,99822.16
2023-03-15T03:09:57.205Z,99834.78
2023-03-15T03:15:03.690Z,99840.28
2023-03-15T03:20:09.532Z,99836.88
2023-03-15T03:25:16.583Z,99844.31
2023-03-15T03:30:20.960Z,99854.16
2023-03-15T03:35:27.215Z,99860.50
2023-03-15T03:40:31.753Z,99868.88
2023-03-15T03:45:36.234Z,99873.25
2023-03-15T03:50:39.525Z,99881.41
2023-03-15T03:55:42.846Z,99878.72
2023-03-15T04:00:47.490Z,99897.59
2023-03-15T04:05:52.859Z,99900.53
2023-03-15T04:10:58.266Z,99910.38
2023-03-15T04:16:07.024Z,99918.50
2023-03-15T04:21:23.174Z,99923.13
2023-03-15T04:26:30.646Z,99926.78
2023-03-15T04:31:46.631Z,99934.06
2023-03-15T04:37:01.399Z,99939.44
2023-03-15T04:42:12.353Z,99947.09
2023-03-15T04:47:35.002Z,99949.88
2023-03-15T04:52:51.741Z,99953.66
2023-03-15T04:58:29.684Z,99964.50
2023-03-15T05:03:44.201Z,99967.16
2023-03-15T05:08:59.998Z,99976.03
2023-03-15T05:14:29.221Z,99970.91
2023-03-15T05:19:46.555Z,99979.78
2023-03-15T05:25:08.483Z,99986.13
2023-03-15T05:30:24.210Z,99993.28
2023-03-15T05:35:53.049Z,100002.53
2023-03-15T05:41:06.631Z,100015.06
2023-03-15T05:46:48.020Z,100029.28
2023-03-15T05:52:15.015Z,100024.91
2023-03-15T05:57:25.815Z,100026.75
2023-03-15T06:02:31.446Z,100041.94
2023-03-15T06:07:50.567Z,100055.31
2023-03-15T06:12:55.473Z,100058.97
2023-03-15T06:17:59.372Z,100069.75
2023-03-15T06:23:04.190Z,100067.00
2023-03-15T06:28:15.781Z,100061.84
2023-03-15T06:33:25.446Z,100077.06
2023-03-15T06:38:30.203Z,100097.63
2023-03-15T06:43:33.123Z,100109.28
2023-03-15T06:48:36.933Z,100121.94
2023-03-15T06:53:41.444Z,100122.78
2023-03-15T06:58:44.658Z,100129.97
2023-03-15T07:03:47.431Z,100131.78
2023-03-15T07:08:51.634Z,100136.41
2023-03-15T07:13:54.466Z,100143.47
2023-03-15T07:18:59.426Z,100140.13
2023-03-15T07:24:04.332Z,100168.59
2023-03-15T07:29:07.477Z,100176.72
2023-03-15T07:34:10.274Z,100174.06
2023-03-15T07:39:14.358Z,100182.19
2023-03-15T07:44:17.417Z,100177.81
2023-03-15T07:49:20.178Z,100188.63
2023-03-15T07:54:24.383Z,100197.94
2023-03-15T07:59:27.273Z,100203.06
2023-03-15T08:04:30.446Z,100200.72
2023-03-15T08:09:34.698Z,100202.19
2023-03-15T08:14:37.760Z,100207.25
2023-03-15T08:19:40.795Z,100216.72
2023-03-15T08:24:45.730Z,100218.56
2023-03-15T08:29:48.614Z,100220.72
2023-03-15T08:34:53.283Z,100231.31
2023-03-15T08:40:01.125Z,100227.25
2023-03-15T08:45:04.171Z,100231.63
2023-03-15T08:50:08.426Z,100232.81
2023-03-15T08:55:14.328Z,100229.66
2023-03-15T09:00:19.966Z,100223.47
2023-03-15T09:05:23.586Z,100241.53
2023-03-15T09:10:27.869Z,100238.06
2023-03-15T09:15:30.692Z,100249.19
2023-03-15T09:20:33.484Z,100253.47
2023-03-15T09:25:38.014Z,100251.75
2023-03-15T09:30:41.150Z,100254.44
2023-03-15T09:35:44.224Z,100253.38
2023-03-15T09:40:48.584Z,100259.34
2023-03-15T09:45:58.719Z,100263.63
2023-03-15T09:51:03.355Z,100266.41
2023-03-15T09:56:13.201Z,100266.53
2023-03-15T10:01:16.193Z,100269.44
2023-03-15T10:06:20.601Z,100272.44
2023-03-15T10:11:28.687Z,100281.22
2023-03-15T10:16:36.416Z,100280.03
2023-03-15T10:21:42.118Z,100275.66
2023-03-15T10:31:54.159Z,100276.56
2023-03-15T10:36:57.374Z,100280.72
2023-03-15T10:42:01.560Z,100281.16
2023-03-15T10:47:21.366Z,100281.59
2023-03-15T10:52:35.459Z,100289.38
2023-03-15T10:57:41.176Z,100279.09
2023-03-15T11:02:50.048Z,100295.38
2023-03-15T11:07:56.711Z,100298.69
2023-03-15T11:13:21.395Z,100297.88
2023-03-15T11:18:28.926Z,100284.13
2023-03-15T11:23:34.803Z,100280.38
2023-03-15T11:28:39.109Z,100280.72
2023-03-15T11:33:45.040Z,100282.66
2023-03-15T11:38:47.985Z,100292.53
2023-03-15T11:43:56.924Z,100290.69
2023-03-15T11:49:02.760Z,100290.34
2023-03-15T11:54:08.473Z,100293.31
2023-03-15T11:59:13.413Z,100293.09
2023-03-15T12:04:45.105Z,100286.56
2023-03-15T12:09:52.216Z,100290.22
2023-03-15T12:15:05.270Z,100289.34
2023-03-15T12:20:12.954Z,100289.25
2023-03-15T12:25:16.455Z,100287.06
2023-03-15T12:30:23.887Z,100299.09
2023-03-15T12:35:30.924Z,100298.97
2023-03-15T12:40:41.088Z,100294.72
2023-03-15T12:45:48.348Z,100297.16
2023-03-15T12:50:56.128Z,100306.53
2023-03-15T12:56:08.310Z,100308.22
2023-03-15T13:01:15.940Z,100301.72
2023-03-15T13:06:24.484Z,100320.91
2023-03-15T13:11:28.430Z,100326.81
2023-03-15T13:16:36.531Z,100324.06
2023-03-15T13:21:42.853Z,100327.25
2023-03-15T13:26:50.973Z,100331.19
2023-03-15T13:32:02.454Z,100329.88
2023-03-15T13:37:05.248Z,100328.63
2023-03-15T13:42:17.928Z,100327.88
2023-03-15T13:47:22.264Z,100331.06
2023-03-15T13:52:25.013Z,100329.28
2023-03-15T13:57:27.784Z,100327.72
2023-03-15T14:02:36.216Z,100341.56
2023-03-15T14:07:40.043Z,100338.69
2023-03-15T14:12:43.897Z,100334.22
2023-03-15T14:17:54.560Z,100345.38
2023-03-15T14:23:01.676Z,100346.66
2023-03-15T14:28:04.909Z,100346.41
2023-03-15T14:33:23.627Z,100349.66
2023-03-15T14:38:26.950Z,100348.00
2023-03-15T14:43:29.868Z,100355.72
2023-03-15T14:48:34.132Z,100357.94
2023-03-15T14:53:37.367Z,100365.13
2023-03-15T14:58:40.212Z,100364.09
2023-03-15T15:03:44.835Z,100372.44
2023-03-15T15:08:48.846Z,100374.75
2023-03-15T15:13:51.678Z,100386.84
2023-03-15T15:18:55.769Z,100389.78
2023-03-15T15:23:59.529Z,100401.03
2023-03-15T15:29:02.920Z,100403.22
2023-03-15T15:34:07.114Z,100416.59
2023-03-15T15:39:17.552Z,100420.56
2023-03-15T15:44:21.123Z,100420.03
2023-03-15T15:49:25.293Z,100432.50
2023-03-15T15:54:30.446Z,100441.91
2023-03-15T15:59:33.233Z,100454.97
2023-03-15T16:04:37.410Z,100452.69
2023-03-15T16:09:40.454Z,100463.88
2023-03-15T16:14:43.526Z,100477.47
2023-03-15T16:19:47.772Z,100477.97
2023-03-15T16:24:51.589Z,100486.16
2023-03-15T16:29:55.628Z,100489.13
2023-03-15T16:34:59.816Z,100496.69
2023-03-15T16:40:04.688Z,100502.16
2023-03-15T16:45:13.337Z,100512.69
2023-03-15T16:50:17.705Z,100519.66
2023-03-15T16:55:22.947Z,100528.44
2023-03-15T17:00:26.082Z,100532.28
2023-03-15T17:05:30.342Z,100544.94
2023-03-15T17:10:33.203Z,100554.16
2023-03-15T17:15:36.026Z,100558.97
2023-03-15T17:20:40.956Z,100571.25
2023-03-15T17:25:43.702Z,100586.53
2023-03-15T17:30:46.501Z,100598.03
2023-03-15T17:35:53.870Z,100615.63
2023-03-15T17:40:56.874Z,100616.56
2023-03-15T17:45:59.761Z,100626.44
2023-03-15T17:51:04.107Z,100639.88
2023-03-15T17:56:07.452Z,100639.78
2023-03-15T18:01:14.374Z,100646.00
2023-03-15T18:06:19.303Z,100649.63
2023-03-15T18:11:24.319Z,100651.47
2023-03-15T18:16:27.219Z,100659.31
2023-03-15T18:21:31.328Z,100662.19
2023-03-15T18:26:34.134Z,100665.66
2023-03-15T18:31:37.133Z,100664.78
2023-03-15T18:36:41.240Z,100678.31
2023-03-15T18:41:44.008Z,100676.38
2023-03-15T18:46:46.732Z,100689.91
2023-03-15T18:51:55.082Z,100694.41
2023-03-15T18:56:57.969Z,100692.69
2023-03-15T19:02:00.825Z,100693.47
2023-03-15T19:07:05.260Z,100694.41
2023-03-15T19:12:08.725Z,100702.47
2023-03-15T19:17:11.496Z,100700.63
2023-03-15T19:22:15.643Z,100700.63
2023-03-15T19:27:18.487Z,100708.78
2023-03-15T19:32:21.405Z,100711.38
2023-03-15T19:37:25.637Z,100713.97
2023-03-15T19:42:28.533Z,100720.31
2023-03-15T19:47:31.440Z,100726.31
2023-03-15T19:52:36.650Z,100728.88
2023-03-15T19:57:39.509Z,100734.22
2023-03-15T20:02:42.416Z,100737.66
2023-03-15T20:07:47.195Z,100744.84
2023-03-15T20:12:50.052Z,100756.34
2023-03-15T20:17:52.875Z,100764.31
2023-03-15T20:22:57.011Z,100769.69
2023-03-15T20:27:59.793Z,100770.53
2023-03-15T20:33:02.680Z,100770.41
2023-03-15T20:38:08.139Z,100780.19
2023-03-15T20:43:12.420Z,100775.78
2023-03-15T20:48:15.230Z,100784.69
2023-03-15T20:53:19.427Z,100788.25
2023-03-15T20:58:22.366Z,100789.09
2023-03-15T21:03:25.149Z,100791.66
2023-03-15T21:08:29.470Z,100800.69
2023-03-15T21:13:32.414Z,100797.03
2023-03-15T21:18:35.950Z,100799.59
2023-03-15T21:23:40.266Z,100799.59
2023-03-15T21:28:43.287Z,100814.75
2023-03-15T21:33:46.102Z,100809.28
2023-03-15T21:38:50.414Z,100821.94
2023-03-15T21:43:53.347Z,100830.00
2023-03-15T21:48:56.261Z,100829.25
2023-03-15T21:54:00.585Z,100837.84
2023-03-15T21:59:03.453Z,100835.16
2023-03-15T22:04:06.565Z,100844.09
2023-03-15T22:09:11.039Z,100855.00
2023-03-15T22:14:13.873Z,100853.19
2023-03-15T22:19:17.523Z,100856.00
2023-03-15T22:24:21.626Z,100862.31
2023-03-15T22:29:24.361Z,100850.72
2023-03-15T22:34:27.336Z,100857.94
2023-03-15T22:39:32.201Z,100861.69
2023-03-15T22:44:34.943Z,100855.47
2023-03-15T22:49:37.905Z,100857.28
2023-03-15T22:54:43.627Z,100854.91
2023-03-15T22:59:46.461Z,100860.16
2023-03-15T23:04:49.224Z,100865.53
2023-03-15T23:09:53.459Z,100870.16
2023-03-15T23:14:56.214Z,100874.91
2023-03-15T23:19:59.005Z,100882.22
2023-03-15T23:25:03.449Z,100878.00
2023-03-15T23:30:07.347Z,100878.97
2023-03-15T23:35:12.104Z,100895.19
2023-03-15T23:40:16.791Z,100899.81
2023-03-15T23:45:19.695Z,100900.78
2023-03-15T23:50:25.717Z,100905.28
2023-03-15T23:55:31.036Z,100911.69
